PILOTS ONLINE: 452    ATC ONLINE: 32

CYIK

Ivujivik Airport

Location

IATA YIK
City Ivujivik
Country  Canada
Latitude 62° 25' 2" N
Longitude 77° 55' 31" W
Elevation 126 ft
Type Medium Airport

Map

Weather

METAR
2014/09/01 13:00
CYIK 011300Z CCA 17003KT 15SM FEW010 FEW060 SCT150 SCT200 SCT300 05/03 A2989 RMK ST1SC1AC3CI1CC1 XMIT PROBLEM SLP125
TAF
2014/09/01 14:00
TAF CYIK 011338Z 0114/0121 20006KT P6SM FEW060 SCT160 
      TEMPO 0114/0121 BKN020 
      RMK NXT FCST WILL BE ISSUED AT 021345Z

Runways

08/26 3521 ft / 100 ft

Outbound flights

Callsign Flying to Pilot ATD/STD ETA Aircraft

Inbound flights

Callsign Flying from Pilot ATD ETA Aircraft